Time;durP1;ratioP1;P1;durP2;ratioP2;P2;SDS_P1;SDS_P2;PMS_P1;PMS_P2;Temp;Humidity;BMP_temperature;BMP_pressure;BME280_temperature;BME280_humidity;BME280_pressure;Samples;Min_cycle;Max_cycle;Signal;HPM_P1;HPM_P2
2022/04/04 00:01:31;;;;;;;12.90;5.83;;;;;;;-4.21;100.00;96561.16;5106054;28;20031;-74
2022/04/04 00:03:57;;;;;;;9.70;4.67;;;;;;;-4.20;100.00;96563.66;5108731;28;20034;-74
2022/04/04 00:06:22;;;;;;;7.73;4.20;;;;;;;-4.21;100.00;96559.41;5109212;28;20032;-74
2022/04/04 00:08:48;;;;;;;12.03;4.87;;;;;;;-4.16;100.00;96556.66;5106902;28;20027;-74
2022/04/04 00:11:14;;;;;;;9.90;5.43;;;;;;;-4.19;100.00;96552.50;5101733;28;20476;-74
2022/04/04 00:13:40;;;;;;;10.27;4.53;;;;;;;-4.22;100.00;96554.38;5106099;28;20046;-74
2022/04/04 00:16:07;;;;;;;10.07;5.17;;;;;;;-4.21;100.00;96551.72;5106423;28;20116;-74
2022/04/04 00:18:35;;;;;;;8.73;4.17;;;;;;;-4.26;100.00;96553.63;5110012;28;20518;-74
2022/04/04 00:21:01;;;;;;;9.00;4.20;;;;;;;-4.37;100.00;96553.22;5109601;28;20442;-74
2022/04/04 00:23:27;;;;;;;9.73;4.27;;;;;;;-4.39;100.00;96544.72;5106807;28;20044;-74
2022/04/04 00:25:52;;;;;;;7.93;3.73;;;;;;;-4.38;100.00;96552.38;5102741;28;20453;-74
2022/04/04 00:28:18;;;;;;;9.53;4.23;;;;;;;-4.39;100.00;96549.88;5110111;28;20575;-74
2022/04/04 00:30:44;;;;;;;8.13;4.30;;;;;;;-4.42;100.00;96542.31;5109787;28;20020;-74
2022/04/04 00:33:10;;;;;;;8.60;4.20;;;;;;;-4.44;100.00;96547.50;5105157;28;20456;-74
2022/04/04 00:35:38;;;;;;;7.80;4.67;;;;;;;-4.54;100.00;96539.31;5119609;27;20568;-74
2022/04/04 00:38:04;;;;;;;9.77;4.97;;;;;;;-4.51;100.00;96541.75;5103770;27;20464;-75
2022/04/04 00:40:30;;;;;;;8.50;4.00;;;;;;;-4.55;100.00;96539.38;5108891;28;21022;-74
2022/04/04 00:42:57;;;;;;;7.57;3.90;;;;;;;-4.50;100.00;96529.75;5108786;28;20453;-74
2022/04/04 00:45:23;;;;;;;9.17;3.93;;;;;;;-4.53;100.00;96538.44;5105299;28;20568;-75
2022/04/04 00:47:49;;;;;;;7.20;4.00;;;;;;;-4.51;100.00;96540.94;5108652;28;20571;-74
2022/04/04 00:50:15;;;;;;;9.73;4.20;;;;;;;-4.60;100.00;96539.53;5108432;28;20397;-74
2022/04/04 00:52:41;;;;;;;9.47;4.30;;;;;;;-4.53;100.00;96543.56;5104360;28;20389;-74
2022/04/04 00:55:08;;;;;;;8.67;4.63;;;;;;;-4.63;100.00;96537.09;5097257;28;20047;-74
2022/04/04 00:57:36;;;;;;;13.63;5.80;;;;;;;-4.68;100.00;96533.88;5100421;28;20924;-74
2022/04/04 01:00:03;;;;;;;11.83;4.97;;;;;;;-4.70;100.00;96537.41;5091534;28;20488;-74
2022/04/04 01:02:29;;;;;;;9.73;4.67;;;;;;;-4.77;100.00;96536.78;5088016;28;20993;-74
2022/04/04 01:04:56;;;;;;;9.70;4.57;;;;;;;-4.76;100.00;96536.75;5091847;28;20459;-74
2022/04/04 01:07:22;;;;;;;8.53;4.40;;;;;;;-4.75;100.00;96533.28;5099811;28;20461;-74
2022/04/04 01:09:48;;;;;;;8.63;4.13;;;;;;;-4.82;100.00;96536.16;5108826;28;20020;-74
2022/04/04 01:12:14;;;;;;;8.63;4.37;;;;;;;-4.94;100.00;96526.34;5107045;28;20488;-75
2022/04/04 01:14:45;;;;;;;9.23;4.50;;;;;;;-4.87;100.00;96528.59;5107712;28;20061;-74
2022/04/04 01:17:11;;;;;;;10.17;4.73;;;;;;;-4.89;100.00;96524.47;5091226;28;20110;-74
2022/04/04 01:19:37;;;;;;;8.30;3.93;;;;;;;-4.98;100.00;96518.75;5108249;28;20441;-74
2022/04/04 01:22:08;;;;;;;9.00;4.60;;;;;;;-4.98;100.00;96521.31;5107371;28;20518;-74
2022/04/04 01:24:38;;;;;;;8.55;4.18;;;;;;;-4.97;100.00;96511.91;5107954;28;20072;-75
2022/04/04 01:27:05;;;;;;;10.07;5.00;;;;;;;-4.94;100.00;96518.66;5090754;28;20027;-74
2022/04/04 01:29:31;;;;;;;11.77;4.67;;;;;;;-4.99;100.00;96521.41;5095976;28;20474;-74
2022/04/04 01:31:58;;;;;;;8.17;4.10;;;;;;;-4.92;100.00;96519.44;5111449;28;20468;-74
2022/04/04 01:34:24;;;;;;;9.57;4.20;;;;;;;-4.97;100.00;96522.16;5106089;28;20525;-75
2022/04/04 01:36:50;;;;;;;8.80;4.33;;;;;;;-4.95;100.00;96519.56;5111930;28;20461;-75
2022/04/04 01:39:17;;;;;;;9.27;4.83;;;;;;;-5.00;100.00;96506.88;5108793;28;20476;-75
2022/04/04 01:41:44;;;;;;;9.00;4.10;;;;;;;-4.96;100.00;96513.59;5111969;28;21577;-74
2022/04/04 01:44:10;;;;;;;7.97;4.23;;;;;;;-4.95;100.00;96509.28;5107009;28;20462;-74
2022/04/04 01:46:36;;;;;;;11.83;4.97;;;;;;;-4.90;100.00;96502.25;5112348;28;20462;-74
2022/04/04 01:49:03;;;;;;;12.57;5.40;;;;;;;-4.91;100.00;96500.59;5111843;28;20452;-74
2022/04/04 01:51:32;;;;;;;11.17;5.37;;;;;;;-4.99;100.00;96499.16;5112753;28;20038;-75
2022/04/04 01:53:58;;;;;;;10.87;5.50;;;;;;;-4.92;100.00;96499.75;5100960;27;20503;-74
2022/04/04 01:56:27;;;;;;;10.57;4.73;;;;;;;-4.88;100.00;96503.03;5116705;27;20453;-75
2022/04/04 01:58:53;;;;;;;11.97;5.47;;;;;;;-4.93;100.00;96497.22;5111470;28;20859;-74
2022/04/04 02:01:23;;;;;;;10.40;4.80;;;;;;;-4.94;100.00;96493.84;5111712;28;20487;-76
2022/04/04 02:03:55;;;;;;;9.53;4.90;;;;;;;-4.92;100.00;96494.63;5102762;28;20046;-75
2022/04/04 02:06:21;;;;;;;10.53;5.30;;;;;;;-4.93;100.00;96499.78;5112617;28;20440;-74
2022/04/04 02:08:47;;;;;;;9.23;4.60;;;;;;;-4.92;100.00;96489.50;5109722;28;20441;-74
2022/04/04 02:11:15;;;;;;;9.10;4.13;;;;;;;-5.05;100.00;96494.25;5111382;28;20465;-75
2022/04/04 02:13:42;;;;;;;9.30;4.73;;;;;;;-5.03;100.00;96491.63;5106998;28;20024;-75
2022/04/04 02:16:07;;;;;;;8.27;4.00;;;;;;;-5.05;100.00;96493.41;5103778;28;20528;-74
2022/04/04 02:18:34;;;;;;;7.27;3.87;;;;;;;-5.10;100.00;96485.88;5106307;28;20541;-74
2022/04/04 02:21:01;;;;;;;8.50;4.07;;;;;;;-5.06;100.00;96481.50;5110743;28;20065;-74
2022/04/04 02:23:27;;;;;;;11.13;4.20;;;;;;;-5.13;100.00;96480.03;5104511;28;20468;-74
2022/04/04 02:25:55;;;;;;;8.95;4.45;;;;;;;-5.03;100.00;96477.09;5108471;28;20463;-74
2022/04/04 02:28:21;;;;;;;9.03;4.20;;;;;;;-5.05;100.00;96473.72;5091583;28;20019;-74
2022/04/04 02:30:49;;;;;;;10.30;4.97;;;;;;;-5.13;100.00;96480.03;5093037;28;20472;-74
2022/04/04 02:33:16;;;;;;;10.57;3.87;;;;;;;-5.13;100.00;96470.63;5092761;28;20513;-74
2022/04/04 02:35:43;;;;;;;9.57;4.30;;;;;;;-5.13;100.00;96477.47;5109026;28;21006;-74
2022/04/04 02:38:09;;;;;;;7.60;4.13;;;;;;;-5.18;100.00;96469.97;5100210;28;20476;-74
2022/04/04 02:40:36;;;;;;;7.23;4.17;;;;;;;-5.17;100.00;96469.06;5092244;28;21005;-74
2022/04/04 02:43:03;;;;;;;11.53;4.50;;;;;;;-5.22;100.00;96465.84;5093117;28;20469;-75
2022/04/04 02:45:30;;;;;;;8.77;4.53;;;;;;;-5.26;100.00;96470.25;5090986;28;20035;-74
2022/04/04 02:47:55;;;;;;;10.40;4.93;;;;;;;-5.30;100.00;96463.59;5111887;28;20023;-74
2022/04/04 02:50:22;;;;;;;8.93;4.90;;;;;;;-5.36;100.00;96461.25;5094576;28;20446;-74
2022/04/04 02:52:47;;;;;;;11.85;5.50;;;;;;;-5.34;100.00;96461.16;5111118;28;20545;-74
2022/04/04 02:57:57;;;;;;;8.93;4.50;;;;;;;-5.38;100.00;96459.63;5111482;28;20023;-74
2022/04/04 03:00:24;;;;;;;8.63;4.60;;;;;;;-5.39;100.00;96458.78;5110842;28;20783;-74
2022/04/04 03:02:51;;;;;;;9.27;4.70;;;;;;;-5.43;100.00;96456.38;5108950;28;20391;-73
2022/04/04 03:05:17;;;;;;;9.93;4.57;;;;;;;-5.46;100.00;96458.19;5095590;28;20460;-74
2022/04/04 03:07:43;;;;;;;9.50;4.70;;;;;;;-5.49;100.00;96454.91;5111877;28;20032;-74
2022/04/04 03:10:09;;;;;;;13.13;5.97;;;;;;;-5.50;100.00;96459.19;5110932;28;20035;-74
2022/04/04 03:12:42;;;;;;;9.65;4.88;;;;;;;-5.45;100.00;96453.88;5092521;28;20039;-74
2022/04/04 03:15:11;;;;;;;9.55;4.68;;;;;;;-5.57;100.00;96455.16;5111164;28;20665;-74
2022/04/04 03:17:39;;;;;;;10.05;5.20;;;;;;;-5.58;100.00;96457.78;5123754;27;20046;-74
2022/04/04 03:20:09;;;;;;;9.93;4.88;;;;;;;-5.54;100.00;96455.03;5112082;28;20031;-74
2022/04/04 03:22:39;;;;;;;12.00;5.10;;;;;;;-5.56;100.00;96458.59;5103452;28;20027;-74
2022/04/04 03:25:06;;;;;;;9.25;5.05;;;;;;;-5.56;100.00;96446.59;5111097;28;20088;-74
2022/04/04 03:27:32;;;;;;;10.25;4.22;;;;;;;-5.53;100.00;96454.19;5091123;28;20100;-74
2022/04/04 03:29:58;;;;;;;9.00;4.70;;;;;;;-5.66;100.00;96457.25;5111124;28;20031;-74
2022/04/04 03:32:24;;;;;;;9.73;5.40;;;;;;;-5.54;100.00;96452.47;5109666;28;20813;-75
2022/04/04 03:34:50;;;;;;;14.93;7.43;;;;;;;-5.63;100.00;96454.53;5110733;28;20038;-74
2022/04/04 03:37:16;;;;;;;14.25;7.38;;;;;;;-5.57;100.00;96454.31;5094978;28;20065;-75
2022/04/04 03:39:42;;;;;;;14.15;7.43;;;;;;;-5.72;100.00;96451.44;5104593;28;20496;-74
2022/04/04 03:42:08;;;;;;;13.00;7.35;;;;;;;-5.79;100.00;96441.47;5109775;28;20023;-75
2022/04/04 03:44:34;;;;;;;11.75;6.07;;;;;;;-5.73;100.00;96443.81;5110559;28;20485;-75
2022/04/04 03:47:00;;;;;;;13.00;5.73;;;;;;;-5.69;100.00;96440.25;5111092;28;20072;-74
2022/04/04 03:49:25;;;;;;;13.17;5.43;;;;;;;-5.75;100.00;96451.53;5108293;28;20050;-74
2022/04/04 03:51:51;;;;;;;12.40;6.20;;;;;;;-5.73;100.00;96446.38;5110739;28;20027;-74
2022/04/04 03:54:17;;;;;;;10.03;5.10;;;;;;;-5.72;100.00;96443.75;5109308;28;20080;-74
2022/04/04 03:56:45;;;;;;;10.50;5.57;;;;;;;-5.72;100.00;96437.78;5108439;28;20059;-74
2022/04/04 03:59:10;;;;;;;13.75;5.50;;;;;;;-5.73;100.00;96438.69;5109495;28;20028;-74
2022/04/04 04:01:36;;;;;;;11.20;5.93;;;;;;;-5.77;100.00;96434.56;5109319;28;20043;-74
2022/04/04 04:04:02;;;;;;;11.70;6.73;;;;;;;-5.69;100.00;96437.69;5106585;28;20035;-74
2022/04/04 04:06:30;;;;;;;12.03;6.40;;;;;;;-5.70;100.00;96434.28;5105516;28;20039;-74
2022/04/04 04:08:57;;;;;;;11.45;6.35;;;;;;;-5.76;100.00;96441.38;5110191;28;20110;-74
2022/04/04 04:11:23;;;;;;;10.95;6.13;;;;;;;-5.76;100.00;96437.06;5109425;28;20432;-74
2022/04/04 04:13:48;;;;;;;12.53;5.87;;;;;;;-5.78;100.00;96449.09;5095140;28;20032;-74
2022/04/04 04:16:15;;;;;;;13.97;6.13;;;;;;;-5.72;100.00;96445.47;5103612;27;20032;-74
2022/04/04 04:18:41;;;;;;;13.15;6.75;;;;;;;-5.84;100.00;96448.47;5109761;28;20122;-74
2022/04/04 04:21:09;;;;;;;19.77;10.03;;;;;;;-5.82;100.00;96441.59;5090387;28;20671;-74
2022/04/04 04:23:37;;;;;;;19.85;12.00;;;;;;;-5.80;100.00;96439.78;5091371;28;21013;-74
2022/04/04 04:26:07;;;;;;;23.63;16.65;;;;;;;-5.75;100.00;96433.63;5084886;28;20031;-74
2022/04/04 04:28:33;;;;;;;22.90;17.63;;;;;;;-5.78;100.00;96436.28;5111631;27;20041;-74
2022/04/04 04:31:00;;;;;;;26.63;17.93;;;;;;;-5.85;100.00;96434.00;5109108;28;20036;-74
2022/04/04 04:33:26;;;;;;;27.70;16.55;;;;;;;-5.84;100.00;96433.09;5106586;28;20035;-73
2022/04/04 04:35:52;;;;;;;28.10;16.97;;;;;;;-5.90;100.00;96435.88;5104893;28;20039;-74
2022/04/04 04:38:18;;;;;;;29.77;17.23;;;;;;;-5.84;100.00;96433.09;5121157;27;20042;-74
2022/04/04 04:40:43;;;;;;;28.48;16.58;;;;;;;-5.82;100.00;96436.47;5110113;28;20042;-74
2022/04/04 04:43:09;;;;;;;36.67;20.33;;;;;;;-5.80;100.00;96437.22;5093471;28;20647;-74
2022/04/04 04:45:35;;;;;;;43.45;21.92;;;;;;;-5.83;100.00;96440.75;5105160;28;20036;-74
2022/04/04 04:48:01;;;;;;;71.53;34.67;;;;;;;-5.82;100.00;96439.03;5103968;28;20038;-74
2022/04/04 04:50:28;;;;;;;44.87;26.40;;;;;;;-5.83;100.00;96432.25;5114048;27;20030;-74
2022/04/04 04:52:55;;;;;;;27.95;14.90;;;;;;;-5.91;100.00;96432.50;5082225;28;20062;-74
2022/04/04 04:55:22;;;;;;;19.90;11.32;;;;;;;-5.87;100.00;96433.22;5108727;28;20028;-74
2022/04/04 04:57:48;;;;;;;23.10;13.80;;;;;;;-5.87;100.00;96435.78;5104107;28;20019;-74
2022/04/04 05:00:17;;;;;;;25.50;15.95;;;;;;;-5.78;100.00;96430.34;5109918;28;20127;-74
2022/04/04 05:02:43;;;;;;;20.40;13.13;;;;;;;-5.79;100.00;96428.66;5105510;28;20429;-75
2022/04/04 05:05:10;;;;;;;18.60;11.33;;;;;;;-5.78;100.00;96431.16;5108212;28;20027;-74
2022/04/04 05:07:35;;;;;;;20.02;10.82;;;;;;;-5.74;100.00;96437.84;5110536;27;20019;-74
2022/04/04 05:10:02;;;;;;;17.57;10.17;;;;;;;-5.57;100.00;96428.69;5111868;28;20412;-75
2022/04/04 05:12:28;;;;;;;17.90;11.43;;;;;;;-5.64;100.00;96428.09;5113431;28;20087;-74
2022/04/04 05:14:53;;;;;;;17.10;10.90;;;;;;;-5.39;100.00;96422.91;5107320;27;20464;-75
2022/04/04 05:17:19;;;;;;;14.17;8.60;;;;;;;-5.39;100.00;96422.09;5110293;27;20160;-74
2022/04/04 05:19:45;;;;;;;16.30;9.43;;;;;;;-5.35;100.00;96423.63;5102793;28;20038;-74
2022/04/04 05:22:14;;;;;;;14.13;9.00;;;;;;;-5.37;100.00;96420.28;5111492;28;20400;-74
2022/04/04 05:24:39;;;;;;;21.17;11.15;;;;;;;-5.39;100.00;96419.53;5108648;28;20031;-74
2022/04/04 05:27:05;;;;;;;17.00;10.17;;;;;;;-5.29;100.00;96416.53;5110383;27;20404;-74
2022/04/04 05:29:31;;;;;;;14.27;9.40;;;;;;;-5.29;100.00;96423.41;5110155;28;20035;-74
2022/04/04 05:31:57;;;;;;;14.10;9.00;;;;;;;-5.29;100.00;96423.41;5106690;28;20598;-74
2022/04/04 05:34:26;;;;;;;15.20;9.48;;;;;;;-5.11;100.00;96426.97;5110851;28;20035;-74
2022/04/04 05:36:53;;;;;;;15.85;8.70;;;;;;;-4.96;100.00;96421.25;5111197;28;20034;-74
2022/04/04 05:39:18;;;;;;;14.63;8.43;;;;;;;-4.85;100.00;96420.84;5112529;28;20028;-75
2022/04/04 05:41:44;;;;;;;14.67;8.87;;;;;;;-4.74;100.00;96423.78;5113642;27;20460;-74
2022/04/04 05:44:10;;;;;;;11.07;7.37;;;;;;;-4.74;100.00;96424.63;5113183;28;20764;-73
2022/04/04 05:46:36;;;;;;;17.10;9.97;;;;;;;-4.58;100.00;96418.88;5114467;28;20552;-75
2022/04/04 05:49:02;;;;;;;30.17;13.00;;;;;;;-4.42;100.00;96417.38;5112767;27;20020;-74
2022/04/04 05:51:33;;;;;;;21.93;11.70;;;;;;;-4.23;100.00;96417.41;5106948;28;20074;-74
2022/04/04 05:53:59;;;;;;;19.40;11.10;;;;;;;-3.88;100.00;96415.06;5112833;28;20528;-74
2022/04/04 05:56:25;;;;;;;19.43;10.17;;;;;;;-3.64;100.00;96421.69;5115506;28;20485;-76
2022/04/04 05:58:51;;;;;;;17.50;10.43;;;;;;;-3.36;100.00;96410.16;5107413;28;20035;-74
2022/04/04 06:01:17;;;;;;;15.33;9.53;;;;;;;-2.99;100.00;96408.47;5091751;28;20469;-74
2022/04/04 06:03:42;;;;;;;15.13;9.43;;;;;;;-2.73;100.00;96414.94;5113849;27;20493;-74
2022/04/04 06:06:08;;;;;;;16.80;9.20;;;;;;;-2.38;100.00;96408.09;5112764;27;20110;-74
2022/04/04 06:08:34;;;;;;;14.77;9.27;;;;;;;-2.13;100.00;96405.09;5093222;28;20123;-74
2022/04/04 06:11:00;;;;;;;15.43;9.17;;;;;;;-1.93;100.00;96394.59;5105376;28;20149;-74
2022/04/04 06:13:26;;;;;;;14.70;9.50;;;;;;;-1.77;100.00;96394.66;5111657;27;20548;-75
2022/04/04 06:15:53;;;;;;;16.50;10.30;;;;;;;-1.48;100.00;96402.59;5108773;27;20030;-74
2022/04/04 06:18:19;;;;;;;16.83;9.47;;;;;;;-1.41;100.00;96403.94;5104412;28;20457;-74
2022/04/04 06:20:45;;;;;;;13.87;9.33;;;;;;;-0.96;100.00;96399.78;5112747;28;20479;-74
2022/04/04 06:23:14;;;;;;;14.53;8.57;;;;;;;-0.65;98.70;96393.72;5096991;28;20481;-74
2022/04/04 06:25:41;;;;;;;13.67;8.77;;;;;;;-0.44;95.25;96391.66;5111997;28;20429;-74
2022/04/04 06:28:08;;;;;;;15.40;9.57;;;;;;;0.10;93.41;96393.69;5110494;28;20469;-75
2022/04/04 06:30:34;;;;;;;16.33;9.67;;;;;;;0.34;89.67;96400.00;5111208;28;20433;-74
2022/04/04 06:33:03;;;;;;;14.77;8.60;;;;;;;0.18;89.37;96401.84;5109884;28;20437;-74
2022/04/04 06:35:29;;;;;;;13.77;8.43;;;;;;;0.19;88.78;96394.00;5110854;28;20055;-75
2022/04/04 06:37:55;;;;;;;13.00;8.17;;;;;;;0.62;86.11;96388.81;5103499;28;20505;-75
2022/04/04 06:40:21;;;;;;;13.27;8.37;;;;;;;0.50;87.52;96389.53;5095122;28;20122;-74
2022/04/04 06:42:48;;;;;;;12.07;8.23;;;;;;;0.71;84.30;96392.59;5110437;28;20034;-75
2022/04/04 06:45:14;;;;;;;14.33;7.77;;;;;;;0.75;86.26;96382.88;5110500;28;20495;-74
2022/04/04 06:47:40;;;;;;;13.70;8.13;;;;;;;0.61;86.07;96386.31;5099476;28;21083;-74
2022/04/04 06:50:06;;;;;;;13.50;8.87;;;;;;;0.60;86.78;96385.47;5110619;28;20558;-74
2022/04/04 06:52:32;;;;;;;13.17;8.90;;;;;;;0.70;86.41;96378.81;5110388;28;20053;-74
2022/04/04 06:54:58;;;;;;;12.13;8.33;;;;;;;1.09;84.40;96379.00;5109977;28;21009;-75
2022/04/04 06:57:23;;;;;;;17.53;8.17;;;;;;;1.25;81.79;96376.25;5115187;27;20476;-75
2022/04/04 06:59:50;;;;;;;13.37;8.50;;;;;;;1.00;82.17;96372.63;5110234;28;20084;-74
2022/04/04 07:02:15;;;;;;;14.73;7.77;;;;;;;1.51;79.08;96375.41;5111082;28;20043;-76
2022/04/04 07:04:41;;;;;;;14.53;8.47;;;;;;;1.52;79.57;96379.66;5109731;28;20453;-74
2022/04/04 07:07:08;;;;;;;14.00;8.47;;;;;;;1.42;80.10;96374.22;5101309;28;20031;-74
2022/04/04 07:09:35;;;;;;;14.93;8.90;;;;;;;1.91;74.77;96358.97;5110023;28;20043;-74
2022/04/04 07:12:02;;;;;;;12.03;7.60;;;;;;;2.03;74.21;96364.16;5117919;27;20433;-75
2022/04/04 07:14:28;;;;;;;15.60;9.47;;;;;;;2.49;74.77;96373.16;5106525;27;20457;-74
2022/04/04 07:16:54;;;;;;;16.93;10.30;;;;;;;2.55;72.41;96368.38;5105379;27;20468;-75
2022/04/04 07:19:22;;;;;;;17.90;11.33;;;;;;;2.77;70.98;96374.66;5096699;28;20468;-75
2022/04/04 07:21:52;;;;;;;11.27;7.70;;;;;;;2.59;71.75;96371.59;5102199;28;20453;-75
2022/04/04 07:24:19;;;;;;;14.30;8.53;;;;;;;3.37;69.24;96360.81;5104723;28;20463;-75
2022/04/04 07:26:48;;;;;;;13.43;8.20;;;;;;;2.86;68.99;96368.81;5109100;28;20534;-75
2022/04/04 07:29:17;;;;;;;15.10;7.60;;;;;;;2.95;68.32;96369.94;5110169;28;20477;-75
2022/04/04 07:31:43;;;;;;;16.43;11.70;;;;;;;3.14;68.41;96367.69;5104678;28;20552;-76
2022/04/04 07:34:10;;;;;;;14.77;9.77;;;;;;;3.40;66.61;96367.56;5088290;28;20492;-75
2022/04/04 07:36:37;;;;;;;14.30;9.60;;;;;;;3.52;67.29;96367.50;5106692;28;20510;-75
2022/04/04 07:39:04;;;;;;;17.93;9.17;;;;;;;3.51;65.79;96371.03;5110308;28;20068;-76
2022/04/04 07:41:30;;;;;;;15.70;8.20;;;;;;;3.21;68.35;96363.69;5110535;28;20438;-75
2022/04/04 07:43:56;;;;;;;14.53;6.90;;;;;;;3.24;68.17;96363.47;5108855;28;20028;-75
2022/04/04 07:46:21;;;;;;;13.27;8.00;;;;;;;3.14;65.56;96365.06;5108821;28;20032;-76
2022/04/04 07:48:47;;;;;;;12.50;6.67;;;;;;;3.18;67.11;96366.50;5109952;28;20437;-75
2022/04/04 07:51:13;;;;;;;11.23;6.70;;;;;;;3.69;64.63;96362.81;5095048;28;20109;-75
2022/04/04 07:53:39;;;;;;;11.20;7.00;;;;;;;3.27;63.63;96344.25;5103417;28;20485;-76
2022/04/04 07:56:05;;;;;;;11.20;6.50;;;;;;;3.84;63.26;96347.84;5114741;27;20088;-76
2022/04/04 07:58:30;;;;;;;12.00;7.07;;;;;;;3.65;63.27;96345.78;5092298;28;20157;-76
2022/04/04 08:00:56;;;;;;;11.90;6.27;;;;;;;3.78;62.57;96346.53;5101812;28;20122;-76
2022/04/04 08:03:23;;;;;;;12.40;6.87;;;;;;;3.38;62.96;96343.44;5104124;28;20118;-76
2022/04/04 08:05:49;;;;;;;13.60;6.47;;;;;;;3.75;61.66;96346.75;5100678;28;20032;-75
2022/04/04 08:08:15;;;;;;;10.73;5.97;;;;;;;4.00;61.37;96348.38;5103157;28;20028;-76
2022/04/04 08:10:41;;;;;;;10.57;6.40;;;;;;;3.80;60.43;96342.06;5108368;28;20030;-76
2022/04/04 08:13:07;;;;;;;14.23;6.60;;;;;;;3.89;60.90;96337.91;5109472;27;20047;-76
2022/04/04 08:15:33;;;;;;;12.80;6.97;;;;;;;4.15;60.53;96341.16;5108734;28;20491;-75
2022/04/04 08:17:59;;;;;;;11.27;6.43;;;;;;;4.57;58.84;96336.19;5100810;28;20093;-76
2022/04/04 08:20:25;;;;;;;9.50;5.80;;;;;;;4.13;60.80;96335.25;5096497;28;20750;-76
2022/04/04 08:22:51;;;;;;;10.73;6.37;;;;;;;3.98;60.60;96332.84;5107503;28;20036;-76
2022/04/04 08:25:17;;;;;;;10.33;5.90;;;;;;;4.07;60.40;96335.72;5100593;28;20051;-76
2022/04/04 08:27:44;;;;;;;9.97;5.97;;;;;;;3.99;58.69;96331.94;5108250;28;20051;-76
2022/04/04 08:30:11;;;;;;;10.87;5.90;;;;;;;4.07;56.27;96326.13;5099796;28;20055;-76
2022/04/04 08:32:38;;;;;;;9.50;5.50;;;;;;;4.90;57.02;96325.72;5104636;28;20031;-76
2022/04/04 08:35:06;;;;;;;11.03;6.07;;;;;;;4.96;56.50;96320.03;5099479;28;20399;-76
2022/04/04 08:37:34;;;;;;;12.73;6.37;;;;;;;5.04;55.28;96313.38;5122664;27;20035;-76
2022/04/04 08:40:03;;;;;;;9.57;5.80;;;;;;;5.40;54.48;96313.00;5109878;28;20031;-76
2022/04/04 08:42:28;;;;;;;9.40;5.50;;;;;;;5.39;54.49;96306.13;5099285;28;20484;-76
2022/04/04 08:45:00;;;;;;;8.10;5.00;;;;;;;5.74;52.99;96307.63;5107097;28;20024;-77
2022/04/04 08:47:29;;;;;;;10.37;5.60;;;;;;;5.67;52.77;96303.88;5108074;28;20113;-77
2022/04/04 08:49:56;;;;;;;10.13;6.57;;;;;;;5.45;53.16;96304.78;5100048;28;20028;-76
2022/04/04 08:52:23;;;;;;;10.00;6.17;;;;;;;5.12;54.60;96295.31;5108816;28;20030;-76
2022/04/04 08:54:49;;;;;;;9.23;5.57;;;;;;;5.75;52.76;96296.22;5108158;28;20046;-76
2022/04/04 08:57:15;;;;;;;9.70;5.47;;;;;;;5.60;52.01;96292.25;5114976;28;20849;-76
2022/04/04 08:59:42;;;;;;;9.20;5.80;;;;;;;5.59;52.41;96293.22;5099656;28;20035;-76
2022/04/04 09:02:09;;;;;;;8.87;5.53;;;;;;;5.89;53.53;96293.28;5109352;28;20477;-76
2022/04/04 09:04:35;;;;;;;8.67;5.07;;;;;;;5.91;51.48;96293.97;5105209;28;20035;-76
2022/04/04 09:07:06;;;;;;;10.23;5.63;;;;;;;6.01;50.88;96290.63;5108942;28;20024;-76
2022/04/04 09:09:44;;;;;;;8.47;5.07;;;;;;;6.36;50.75;96285.00;5108620;28;20084;-76
2022/04/04 09:12:22;;;;;;;8.73;5.67;;;;;;;5.97;51.47;96287.47;5100667;28;20027;-77
2022/04/04 09:14:53;;;;;;;9.67;4.97;;;;;;;6.59;50.43;96285.63;5103846;28;20038;-76
2022/04/04 09:17:22;;;;;;;11.30;6.57;;;;;;;6.19;51.28;96283.84;5111376;28;20059;-77
2022/04/04 09:19:48;;;;;;;9.10;5.53;;;;;;;6.49;49.81;96276.94;5088157;28;20390;-77
2022/04/04 09:22:18;;;;;;;8.23;4.60;;;;;;;6.46;50.36;96270.19;5104634;28;20083;-77
2022/04/04 09:24:47;;;;;;;8.50;4.87;;;;;;;6.81;48.48;96264.50;5125173;28;20752;-75
2022/04/04 09:27:24;;;;;;;10.10;5.57;;;;;;;6.42;50.26;96258.34;5109402;28;20028;-76
2022/04/04 09:29:55;;;;;;;8.37;5.47;;;;;;;6.63;49.64;96254.84;5105136;28;20035;-76
2022/04/04 09:32:22;;;;;;;9.70;5.03;;;;;;;6.85;50.15;96244.97;5104769;28;20027;-77
2022/04/04 09:35:08;;;;;;;9.43;5.47;;;;;;;6.82;47.88;96245.25;5108840;28;20016;-76
2022/04/04 09:37:36;;;;;;;10.23;6.53;;;;;;;6.42;48.40;96236.63;5099236;28;20042;-76
2022/04/04 09:40:06;;;;;;;10.07;5.77;;;;;;;6.72;46.78;96233.94;5090929;28;20042;-76
2022/04/04 09:42:33;;;;;;;9.43;5.97;;;;;;;7.36;48.47;96229.16;5107604;28;20518;-76
2022/04/04 09:45:11;;;;;;;10.17;5.90;;;;;;;6.66;47.28;96224.03;5108935;28;20492;-76
2022/04/04 09:47:53;;;;;;;10.87;5.97;;;;;;;6.68;47.94;96219.50;5107255;28;20069;-76
2022/04/04 09:50:45;;;;;;;10.23;6.10;;;;;;;6.65;47.77;96222.38;5103031;28;20028;-76
2022/04/04 09:53:23;;;;;;;9.73;5.57;;;;;;;7.33;47.17;96215.38;5101196;28;20439;-76
2022/04/04 09:55:57;;;;;;;10.30;6.00;;;;;;;6.89;48.41;96213.34;5112233;28;20037;-76
2022/04/04 09:58:28;;;;;;;8.83;5.43;;;;;;;7.27;46.98;96212.50;5110453;28;20126;-76
2022/04/04 10:00:55;;;;;;;9.13;5.67;;;;;;;7.63;47.09;96207.47;5104717;28;20039;-77
2022/04/04 10:03:22;;;;;;;9.77;5.80;;;;;;;6.43;47.06;96201.72;5103428;28;20114;-76
2022/04/04 10:05:53;;;;;;;8.60;5.20;;;;;;;7.41;47.26;96193.78;5107029;28;20036;-76
2022/04/04 10:08:22;;;;;;;9.77;5.93;;;;;;;7.45;46.15;96194.31;5112564;28;20027;-76
2022/04/04 10:10:49;;;;;;;10.10;5.70;;;;;;;7.88;43.83;96190.31;5111463;28;20103;-76
2022/04/04 10:13:16;;;;;;;9.67;4.77;;;;;;;7.94;43.31;96184.50;5107010;28;20031;-76
2022/04/04 10:15:43;;;;;;;7.90;4.87;;;;;;;6.97;43.67;96179.47;5104045;28;20042;-75
2022/04/04 10:18:09;;;;;;;8.43;4.90;;;;;;;7.18;44.19;96177.56;5111420;28;20063;-76
2022/04/04 10:20:36;;;;;;;7.80;4.80;;;;;;;7.14;45.01;96175.34;5109025;28;20460;-75
2022/04/04 10:23:04;;;;;;;7.90;4.93;;;;;;;6.94;44.99;96174.53;5104024;28;20043;-75
2022/04/04 10:25:32;;;;;;;9.43;5.27;;;;;;;7.29;45.30;96174.78;5107739;28;20097;-75
2022/04/04 10:27:59;;;;;;;9.40;5.43;;;;;;;7.14;47.07;96168.31;5110559;28;20031;-75
2022/04/04 10:30:40;;;;;;;9.23;5.50;;;;;;;7.61;44.59;96176.19;5111869;28;20035;-75
2022/04/04 10:33:26;;;;;;;8.23;5.30;;;;;;;7.24;44.67;96165.69;5084549;28;20088;-75
2022/04/04 10:36:06;;;;;;;7.97;5.40;;;;;;;7.31;45.38;96161.56;5110798;28;20050;-75
2022/04/04 10:38:58;;;;;;;7.77;5.07;;;;;;;7.33;44.18;96149.16;5111628;28;20168;-76
2022/04/04 10:41:29;;;;;;;7.23;4.63;;;;;;;7.27;43.80;96150.53;5104631;28;20112;-75
2022/04/04 10:43:56;;;;;;;8.60;4.97;;;;;;;8.19;46.69;96141.94;5109348;28;20552;-75
2022/04/04 10:46:24;;;;;;;8.50;5.30;;;;;;;7.77;44.33;96137.16;5109903;28;20091;-78
2022/04/04 10:49:02;;;;;;;6.60;4.23;;;;;;;7.05;43.42;96143.03;5111123;28;20553;-75
2022/04/04 10:51:31;;;;;;;8.90;4.50;;;;;;;7.63;43.99;96128.97;5110444;28;20038;-75
2022/04/04 10:54:10;;;;;;;7.00;4.50;;;;;;;7.05;43.94;96125.53;5095619;28;20515;-76
2022/04/04 10:56:47;;;;;;;7.80;4.83;;;;;;;7.50;43.28;96113.56;5111901;28;20043;-76
2022/04/04 10:59:16;;;;;;;7.83;4.30;;;;;;;6.84;43.51;96117.00;5107550;28;20027;-75
2022/04/04 11:01:43;;;;;;;7.13;4.47;;;;;;;7.62;42.26;96112.44;5101974;28;20374;-75
2022/04/04 11:04:29;;;;;;;8.60;4.60;;;;;;;7.72;41.72;96107.16;5109978;28;20499;-75
2022/04/04 11:09:56;;;;;;;8.10;4.30;;;;;;;7.85;42.02;96091.13;5094846;28;20040;-76
2022/04/04 11:12:25;;;;;;;9.37;4.63;;;;;;;8.21;43.21;96099.84;5111205;28;20073;-75
2022/04/04 11:15:04;;;;;;;7.77;4.50;;;;;;;7.88;41.49;96096.06;5107945;27;20055;-75
2022/04/04 11:17:36;;;;;;;8.13;4.73;;;;;;;7.12;43.56;96098.84;5104566;27;20039;-74
2022/04/04 11:23:02;;;;;;;7.70;4.70;;;;;;;7.73;41.90;96077.41;5100645;28;20051;-76
2022/04/04 11:25:33;;;;;;;8.17;4.50;;;;;;;7.44;41.07;96074.91;5109105;28;20423;-76
2022/04/04 11:28:04;;;;;;;8.07;4.23;;;;;;;7.39;42.63;96070.09;5104612;28;20035;-76
2022/04/04 11:30:30;;;;;;;8.30;4.80;;;;;;;7.68;43.54;96080.47;5110802;28;20036;-76
2022/04/04 11:32:59;;;;;;;9.93;5.13;;;;;;;8.26;42.72;96059.16;5108869;28;20381;-76
2022/04/04 11:35:31;;;;;;;7.87;4.90;;;;;;;8.00;42.90;96053.81;5110557;28;20027;-76
2022/04/04 11:38:06;;;;;;;8.30;4.00;;;;;;;8.10;43.38;96052.94;5101294;28;20027;-75